createdAt,value
2022-10-08T00:00:57.802Z,12.70
2022-10-08T00:03:52.369Z,12.07
2022-10-08T00:06:45.065Z,12.75
2022-10-08T00:09:38.528Z,12.43
2022-10-08T00:12:36.072Z,13.75
2022-10-08T00:15:28.092Z,12.63
2022-10-08T00:18:20.009Z,12.50
2022-10-08T00:21:38.768Z,12.25
2022-10-08T00:24:30.665Z,12.35
2022-10-08T00:27:37.538Z,12.43
2022-10-08T00:30:37.661Z,13.38
2022-10-08T00:33:35.758Z,12.07
2022-10-08T00:36:34.420Z,11.18
2022-10-08T00:39:31.003Z,11.65
2022-10-08T00:42:25.400Z,10.93
2022-10-08T00:45:24.706Z,10.98
2022-10-08T00:48:27.405Z,12.15
2022-10-08T00:51:19.688Z,12.82
2022-10-08T00:54:25.361Z,11.63
2022-10-08T01:00:42.073Z,11.93
2022-10-08T01:03:48.737Z,11.43
2022-10-08T01:07:14.305Z,12.65
2022-10-08T01:10:21.693Z,13.35
2022-10-08T01:16:49.580Z,13.05
2022-10-08T01:19:59.710Z,13.93
2022-10-08T01:23:21.779Z,14.38
2022-10-08T01:26:26.658Z,15.57
2022-10-08T01:29:26.029Z,14.18
2022-10-08T01:32:22.445Z,13.70
2022-10-08T01:35:21.052Z,13.68
2022-10-08T01:38:20.123Z,13.43
2022-10-08T01:41:15.809Z,12.57
2022-10-08T01:44:24.608Z,14.18
2022-10-08T01:47:23.934Z,14.63
2022-10-08T01:50:20.712Z,14.88
2022-10-08T01:53:16.814Z,12.88
2022-10-08T01:56:12.464Z,13.55
2022-10-08T01:59:11.015Z,12.35
2022-10-08T02:02:24.137Z,13.10
2022-10-08T02:05:18.306Z,12.73
2022-10-08T02:11:01.336Z,12.55
2022-10-08T02:13:52.749Z,13.02
2022-10-08T02:16:52.918Z,13.02
2022-10-08T02:19:54.823Z,12.48
2022-10-08T02:23:05.092Z,13.75
2022-10-08T02:26:06.712Z,13.70
2022-10-08T02:29:06.846Z,13.88
2022-10-08T02:32:09.690Z,13.60
2022-10-08T02:35:32.537Z,13.38
2022-10-08T02:38:34.773Z,13.15
2022-10-08T02:41:50.861Z,13.45
2022-10-08T02:45:07.961Z,13.48
2022-10-08T02:48:08.908Z,13.15
2022-10-08T02:51:06.462Z,12.82
2022-10-08T02:54:00.143Z,13.90
2022-10-08T02:56:57.701Z,12.73
2022-10-08T02:59:49.026Z,13.93
2022-10-08T03:02:51.805Z,13.02
2022-10-08T03:05:44.627Z,13.27
2022-10-08T03:08:44.605Z,13.30
2022-10-08T03:11:35.922Z,13.25
2022-10-08T03:14:27.703Z,13.82
2022-10-08T03:17:25.310Z,13.40
2022-10-08T03:20:16.695Z,13.13
2022-10-08T03:23:08.409Z,12.95
2022-10-08T03:25:59.940Z,12.77
2022-10-08T03:28:53.616Z,13.75
2022-10-08T03:31:52.588Z,13.90
2022-10-08T03:34:43.907Z,12.85
2022-10-08T03:37:36.281Z,13.00
2022-10-08T03:40:35.107Z,13.00
2022-10-08T03:43:34.165Z,13.43
2022-10-08T03:46:25.484Z,13.40
2022-10-08T03:49:21.773Z,12.95
2022-10-08T03:52:15.997Z,13.77
2022-10-08T03:55:08.155Z,13.52
2022-10-08T03:58:01.800Z,14.10
2022-10-08T04:01:09.732Z,13.30
2022-10-08T04:04:03.018Z,13.77
2022-10-08T04:06:57.054Z,13.90
2022-10-08T04:09:48.117Z,14.40
2022-10-08T04:12:41.831Z,13.45
2022-10-08T04:15:33.121Z,14.60
2022-10-08T04:18:29.322Z,14.43
2022-10-08T04:21:39.726Z,14.48
2022-10-08T04:24:41.042Z,15.80
2022-10-08T04:27:40.014Z,15.13
2022-10-08T04:30:38.751Z,15.82
2022-10-08T04:33:39.236Z,13.55
2022-10-08T04:36:36.413Z,14.38
2022-10-08T04:39:31.703Z,13.98
2022-10-08T04:42:22.850Z,13.50
2022-10-08T04:45:14.535Z,12.32
2022-10-08T04:48:10.210Z,14.27
2022-10-08T04:51:11.151Z,14.13
2022-10-08T04:54:03.379Z,14.35
2022-10-08T04:56:58.487Z,14.40
2022-10-08T05:00:16.598Z,14.95
2022-10-08T05:03:07.010Z,17.33
2022-10-08T05:06:02.788Z,16.25
2022-10-08T05:09:04.533Z,17.85
2022-10-08T05:12:05.213Z,17.27
2022-10-08T05:14:56.358Z,16.88
2022-10-08T05:17:56.015Z,16.48
2022-10-08T05:20:57.133Z,17.23
2022-10-08T05:24:08.304Z,16.50
2022-10-08T05:27:25.521Z,16.13
2022-10-08T05:30:26.310Z,17.17
2022-10-08T05:33:29.142Z,16.75
2022-10-08T05:36:25.150Z,16.25
2022-10-08T05:39:33.948Z,17.17
2022-10-08T05:42:40.590Z,16.70
2022-10-08T05:45:51.792Z,15.82
2022-10-08T05:49:05.441Z,14.85
2022-10-08T05:52:05.424Z,14.50
2022-10-08T05:55:15.153Z,15.25
2022-10-08T05:58:28.491Z,15.63
2022-10-08T06:01:26.940Z,15.18
2022-10-08T06:04:21.963Z,14.57
2022-10-08T06:07:13.966Z,13.82
2022-10-08T06:10:04.817Z,15.18
2022-10-08T06:12:56.323Z,15.23
2022-10-08T06:16:11.487Z,14.50
2022-10-08T06:19:03.397Z,16.02
2022-10-08T06:21:56.626Z,16.33
2022-10-08T06:24:47.460Z,16.50
2022-10-08T06:27:47.132Z,15.25
2022-10-08T06:30:42.453Z,16.25
2022-10-08T06:33:49.330Z,16.10
2022-10-08T06:36:48.504Z,17.35
2022-10-08T06:39:49.961Z,17.38
2022-10-08T06:42:50.610Z,16.98
2022-10-08T06:45:58.846Z,16.75
2022-10-08T06:49:10.625Z,17.23
2022-10-08T06:52:08.801Z,17.02
2022-10-08T06:55:04.568Z,18.70
2022-10-08T06:57:55.509Z,19.02
2022-10-08T07:00:49.544Z,17.95
2022-10-08T07:06:34.908Z,16.20
2022-10-08T07:09:31.169Z,17.23
2022-10-08T07:12:23.340Z,16.42
2022-10-08T07:15:23.161Z,16.65
2022-10-08T07:18:14.551Z,15.32
2022-10-08T07:21:08.742Z,14.48
2022-10-08T07:24:01.646Z,13.07
2022-10-08T07:26:52.894Z,12.20
2022-10-08T07:29:47.739Z,12.38
2022-10-08T07:32:39.596Z,11.45
2022-10-08T07:35:36.806Z,10.20
2022-10-08T07:38:27.439Z,9.98
2022-10-08T07:41:20.431Z,9.85
2022-10-08T07:44:12.195Z,7.80
2022-10-08T07:47:08.325Z,6.32
2022-10-08T07:50:02.374Z,5.40
2022-10-08T07:52:53.519Z,4.95
2022-10-08T07:55:44.321Z,4.75
2022-10-08T07:58:50.328Z,4.47
2022-10-08T08:01:49.592Z,3.55
2022-10-08T08:04:40.456Z,3.33
2022-10-08T08:07:31.717Z,2.80
2022-10-08T08:13:37.234Z,2.80
2022-10-08T08:16:32.420Z,3.00
2022-10-08T08:19:24.380Z,2.90
2022-10-08T08:22:17.272Z,3.10
2022-10-08T08:25:08.434Z,2.45
2022-10-08T08:27:59.043Z,2.78
2022-10-08T08:30:49.951Z,2.97
2022-10-08T08:33:41.329Z,2.80
2022-10-08T08:36:34.394Z,2.78
2022-10-08T08:39:26.763Z,2.00
2022-10-08T08:42:27.987Z,2.80
2022-10-08T08:45:45.895Z,2.40
2022-10-08T08:48:39.325Z,2.78
2022-10-08T08:51:29.473Z,2.58
2022-10-08T08:54:20.151Z,2.20
2022-10-08T08:57:30.930Z,2.10
2022-10-08T09:00:24.667Z,2.15
2022-10-08T09:03:34.863Z,2.60
2022-10-08T09:06:28.602Z,2.05
2022-10-08T09:09:39.035Z,2.17
2022-10-08T09:12:45.888Z,2.55
2022-10-08T09:15:38.078Z,2.22
2022-10-08T09:18:28.429Z,2.97
2022-10-08T09:21:22.631Z,2.47
2022-10-08T09:24:15.001Z,1.85
2022-10-08T09:27:14.636Z,2.03
2022-10-08T09:30:26.493Z,1.67
2022-10-08T09:33:29.535Z,2.78
2022-10-08T09:36:48.972Z,1.83
2022-10-08T09:39:39.128Z,2.00
2022-10-08T09:42:29.292Z,2.08
2022-10-08T09:45:34.732Z,2.30
2022-10-08T09:48:27.610Z,2.30
2022-10-08T09:51:18.368Z,1.80
2022-10-08T09:54:13.011Z,2.65
2022-10-08T09:57:03.874Z,2.20
2022-10-08T10:00:00.011Z,2.17
2022-10-08T10:02:54.299Z,2.28
2022-10-08T10:05:51.303Z,2.13
2022-10-08T10:08:43.246Z,2.10
2022-10-08T10:11:41.834Z,2.63
2022-10-08T10:14:51.827Z,2.72
2022-10-08T10:17:54.249Z,2.25
2022-10-08T10:20:49.546Z,1.80
2022-10-08T10:24:03.374Z,2.38
2022-10-08T10:26:56.705Z,2.20
2022-10-08T10:29:54.940Z,1.77
2022-10-08T10:32:55.176Z,1.67
2022-10-08T10:35:53.231Z,2.47
2022-10-08T10:39:03.746Z,1.85
2022-10-08T10:42:04.099Z,1.98
2022-10-08T10:44:57.773Z,2.00
2022-10-08T10:47:48.959Z,1.60
2022-10-08T10:50:54.179Z,1.90
2022-10-08T10:54:03.874Z,1.88
2022-10-08T10:57:04.627Z,1.80
2022-10-08T11:00:05.645Z,1.70
2022-10-08T11:03:07.229Z,1.98
2022-10-08T11:06:16.155Z,1.77
2022-10-08T11:09:21.581Z,2.03
2022-10-08T11:13:00.003Z,1.65
2022-10-08T11:16:09.182Z,1.73
2022-10-08T11:19:02.652Z,1.80
2022-10-08T11:21:55.561Z,2.20
2022-10-08T11:25:04.857Z,1.30
2022-10-08T11:28:07.733Z,2.00
2022-10-08T11:31:30.382Z,1.80
2022-10-08T11:34:26.915Z,2.20
2022-10-08T11:37:40.153Z,1.80
2022-10-08T11:40:43.081Z,1.52
2022-10-08T11:43:45.101Z,1.20
2022-10-08T11:46:36.553Z,1.55
2022-10-08T11:49:27.027Z,1.77
2022-10-08T11:52:17.411Z,2.78
2022-10-08T11:55:25.253Z,1.48
2022-10-08T11:58:23.705Z,2.38
2022-10-08T12:01:14.357Z,2.50
2022-10-08T12:04:20.178Z,1.35
2022-10-08T12:07:22.142Z,1.55
2022-10-08T12:10:18.141Z,1.50
2022-10-08T12:13:14.151Z,1.40
2022-10-08T12:16:07.728Z,1.85
2022-10-08T12:18:59.020Z,1.73
2022-10-08T12:21:50.424Z,1.80
2022-10-08T12:24:40.345Z,1.50
2022-10-08T12:27:37.755Z,1.50
2022-10-08T12:30:50.180Z,1.35
2022-10-08T12:33:40.913Z,1.17
2022-10-08T12:36:49.805Z,0.98
2022-10-08T12:39:44.899Z,1.48
2022-10-08T12:42:38.352Z,1.45
2022-10-08T12:45:40.208Z,1.20
2022-10-08T12:48:50.435Z,1.33
2022-10-08T12:51:58.724Z,1.30
2022-10-08T12:54:57.851Z,1.17
2022-10-08T12:57:50.386Z,1.02
2022-10-08T13:00:43.568Z,0.90
2022-10-08T13:03:33.969Z,1.50
2022-10-08T13:06:33.051Z,1.42
2022-10-08T13:09:35.121Z,1.15
2022-10-08T13:12:25.917Z,1.35
2022-10-08T13:15:23.864Z,1.13
2022-10-08T13:18:22.248Z,0.90
2022-10-08T13:21:36.020Z,0.85
2022-10-08T13:24:25.931Z,1.27
2022-10-08T13:27:25.407Z,1.27
2022-10-08T13:30:28.105Z,1.10
2022-10-08T13:33:21.284Z,2.60
2022-10-08T13:36:21.467Z,2.33
2022-10-08T13:39:27.395Z,1.30
2022-10-08T13:42:20.417Z,1.27
2022-10-08T13:45:25.394Z,1.00
2022-10-08T13:48:15.132Z,0.80
2022-10-08T13:51:05.111Z,1.15
2022-10-08T13:53:57.124Z,0.85
2022-10-08T13:56:47.082Z,1.25
2022-10-08T13:59:37.156Z,1.17
2022-10-08T14:02:27.567Z,1.20
2022-10-08T14:05:18.740Z,1.10
2022-10-08T14:08:25.366Z,0.80
2022-10-08T14:11:17.798Z,0.80
2022-10-08T14:14:12.746Z,0.52
2022-10-08T14:17:02.834Z,0.63
2022-10-08T14:19:55.311Z,1.30
2022-10-08T14:22:46.264Z,0.80
2022-10-08T14:25:36.561Z,1.05
2022-10-08T14:28:26.775Z,0.70
2022-10-08T14:31:17.113Z,0.80
2022-10-08T14:34:07.448Z,0.82
2022-10-08T14:36:57.937Z,0.95
2022-10-08T14:39:47.915Z,0.93
2022-10-08T14:42:37.804Z,0.85
2022-10-08T14:45:27.745Z,0.50
2022-10-08T14:48:18.232Z,0.55
2022-10-08T14:51:08.248Z,0.60
2022-10-08T14:53:58.495Z,0.65
2022-10-08T14:56:48.834Z,0.82
2022-10-08T14:59:40.356Z,0.90
2022-10-08T15:02:30.375Z,0.60
2022-10-08T15:05:20.418Z,0.60
2022-10-08T15:08:10.782Z,0.57
2022-10-08T15:11:03.689Z,0.50
2022-10-08T15:13:54.068Z,0.50
2022-10-08T15:16:44.434Z,0.63
2022-10-08T15:19:34.601Z,0.50
2022-10-08T15:22:24.579Z,0.60
2022-10-08T15:25:14.850Z,0.98
2022-10-08T15:28:05.343Z,0.50
2022-10-08T15:31:06.651Z,0.82
2022-10-08T15:33:59.543Z,0.90
2022-10-08T15:36:49.653Z,0.93
2022-10-08T15:39:39.911Z,1.10
2022-10-08T15:42:30.105Z,1.02
2022-10-08T15:45:20.016Z,0.70
2022-10-08T15:48:12.015Z,1.00
2022-10-08T15:51:02.596Z,0.80
2022-10-08T15:53:52.787Z,0.68
2022-10-08T15:56:42.630Z,1.02
2022-10-08T15:59:33.865Z,0.80
2022-10-08T16:02:25.036Z,1.27
2022-10-08T16:05:15.242Z,1.25
2022-10-08T16:08:08.676Z,0.98
2022-10-08T16:11:09.125Z,1.30
2022-10-08T16:14:06.541Z,1.90
2022-10-08T16:16:57.259Z,1.90
2022-10-08T16:19:47.324Z,1.27
2022-10-08T16:22:37.215Z,1.52
2022-10-08T16:25:27.306Z,1.25
2022-10-08T16:28:17.447Z,1.38
2022-10-08T16:31:08.441Z,1.30
2022-10-08T16:34:01.039Z,1.40
2022-10-08T16:36:51.290Z,1.15
2022-10-08T16:39:41.605Z,1.00
2022-10-08T16:42:31.717Z,1.30
2022-10-08T16:45:22.113Z,1.23
2022-10-08T16:48:12.023Z,1.17
2022-10-08T16:51:02.967Z,1.08
2022-10-08T16:53:55.747Z,1.23
2022-10-08T16:56:46.369Z,2.35
2022-10-08T16:59:36.633Z,1.65
2022-10-08T17:02:27.348Z,1.77
2022-10-08T17:05:17.443Z,1.90
2022-10-08T17:08:07.743Z,2.50
2022-10-08T17:10:57.773Z,3.15
2022-10-08T17:13:50.693Z,3.40
2022-10-08T17:16:43.342Z,4.18
2022-10-08T17:19:33.881Z,3.58
2022-10-08T17:22:24.367Z,3.63
2022-10-08T17:25:14.326Z,3.83
2022-10-08T17:28:04.250Z,4.20
2022-10-08T17:30:57.484Z,3.60
2022-10-08T17:33:48.001Z,3.63
2022-10-08T17:36:40.453Z,3.80
2022-10-08T17:39:32.548Z,3.30
2022-10-08T17:42:22.408Z,3.47
2022-10-08T17:45:12.314Z,3.72
2022-10-08T17:48:02.375Z,4.03
2022-10-08T17:50:52.362Z,4.30
2022-10-08T17:53:43.700Z,4.50
2022-10-08T17:56:34.835Z,3.92
2022-10-08T17:59:25.189Z,4.20
2022-10-08T18:02:15.005Z,4.15
2022-10-08T18:05:05.360Z,4.68
2022-10-08T18:07:55.270Z,4.70
2022-10-08T18:10:45.151Z,4.72
2022-10-08T18:13:35.767Z,4.65
2022-10-08T18:16:25.783Z,3.97
2022-10-08T18:19:17.014Z,3.80
2022-10-08T18:22:06.971Z,4.00
2022-10-08T18:24:57.048Z,3.85
2022-10-08T18:27:47.980Z,3.58
2022-10-08T18:30:38.374Z,4.00
2022-10-08T18:33:30.810Z,4.20
2022-10-08T18:36:24.217Z,3.13
2022-10-08T18:39:16.885Z,3.87
2022-10-08T18:42:07.184Z,3.67
2022-10-08T18:44:57.207Z,4.57
2022-10-08T18:47:47.354Z,5.05
2022-10-08T18:50:37.453Z,4.00
2022-10-08T18:53:30.659Z,3.15
2022-10-08T18:56:25.446Z,3.70
2022-10-08T18:59:16.900Z,3.30
2022-10-08T19:02:09.980Z,4.47
2022-10-08T19:05:00.939Z,4.20
2022-10-08T19:07:51.304Z,4.97
2022-10-08T19:10:41.880Z,4.05
2022-10-08T19:13:32.107Z,4.00
2022-10-08T19:16:22.168Z,4.55
2022-10-08T19:19:20.023Z,3.65
2022-10-08T19:22:10.326Z,3.67
2022-10-08T19:25:02.179Z,3.53
2022-10-08T19:27:53.984Z,3.20
2022-10-08T19:30:44.208Z,3.88
2022-10-08T19:33:34.694Z,3.78
2022-10-08T19:36:26.318Z,3.70
2022-10-08T19:39:22.548Z,4.05
2022-10-08T19:42:12.849Z,4.18
2022-10-08T19:45:03.341Z,4.13
2022-10-08T19:47:53.589Z,3.60
2022-10-08T19:50:43.720Z,3.72
2022-10-08T19:53:34.775Z,3.65
2022-10-08T19:56:25.380Z,5.35
2022-10-08T19:59:15.783Z,4.57
2022-10-08T20:02:05.859Z,5.05
2022-10-08T20:04:56.337Z,4.85
2022-10-08T20:07:46.732Z,4.78
2022-10-08T20:10:39.783Z,4.40
2022-10-08T20:13:30.107Z,4.82
2022-10-08T20:16:25.767Z,4.75
2022-10-08T20:19:21.482Z,4.63
2022-10-08T20:22:12.055Z,4.93
2022-10-08T20:25:02.315Z,4.97
2022-10-08T20:27:52.724Z,5.28
2022-10-08T20:30:43.544Z,5.32
2022-10-08T20:33:33.812Z,5.28
2022-10-08T20:36:24.407Z,5.60
2022-10-08T20:39:16.550Z,6.40
2022-10-08T20:42:06.664Z,5.82
2022-10-08T20:44:57.058Z,6.47
2022-10-08T20:47:47.023Z,5.78
2022-10-08T20:50:36.908Z,6.70
2022-10-08T20:53:27.130Z,7.28
2022-10-08T20:56:19.052Z,6.60
2022-10-08T20:59:13.296Z,6.65
2022-10-08T21:02:04.941Z,6.35
2022-10-08T21:04:55.005Z,6.10
2022-10-08T21:07:44.900Z,6.60
2022-10-08T21:10:38.149Z,5.93
2022-10-08T21:13:29.032Z,7.38
2022-10-08T21:16:22.376Z,6.57
2022-10-08T21:19:14.836Z,7.00
2022-10-08T21:22:04.759Z,6.90
2022-10-08T21:24:54.898Z,7.05
2022-10-08T21:27:45.414Z,7.57
2022-10-08T21:30:35.462Z,7.43
2022-10-08T21:33:25.715Z,7.40
2022-10-08T21:36:18.065Z,7.43
2022-10-08T21:39:10.836Z,7.07
2022-10-08T21:42:00.855Z,8.05
2022-10-08T21:44:50.806Z,7.75
2022-10-08T21:47:40.868Z,8.40
2022-10-08T21:50:35.255Z,8.27
2022-10-08T21:53:28.027Z,8.55
2022-10-08T21:56:22.215Z,8.07
2022-10-08T21:59:14.516Z,6.90
2022-10-08T22:02:04.371Z,7.68
2022-10-08T22:04:54.339Z,7.35
2022-10-08T22:07:44.374Z,6.60
2022-10-08T22:10:37.214Z,7.18
2022-10-08T22:13:27.742Z,6.90
2022-10-08T22:16:19.624Z,6.82
2022-10-08T22:19:10.000Z,7.43
2022-10-08T22:22:00.345Z,7.10
2022-10-08T22:24:50.434Z,7.25
2022-10-08T22:27:40.314Z,7.63
2022-10-08T22:30:33.291Z,7.55
2022-10-08T22:33:23.445Z,7.07
2022-10-08T22:36:16.801Z,7.95
2022-10-08T22:39:07.460Z,8.20
2022-10-08T22:41:57.669Z,9.18
2022-10-08T22:44:47.757Z,7.85
2022-10-08T22:47:37.647Z,8.00
2022-10-08T22:50:27.507Z,8.18
2022-10-08T22:53:17.839Z,7.50
2022-10-08T22:56:11.465Z,7.30
2022-10-08T22:59:01.881Z,7.35
2022-10-08T23:01:52.049Z,6.82
2022-10-08T23:04:42.413Z,7.15
2022-10-08T23:07:32.379Z,6.32
2022-10-08T23:10:23.640Z,7.25
2022-10-08T23:13:13.636Z,6.90
2022-10-08T23:16:05.366Z,6.80
2022-10-08T23:18:57.919Z,7.03
2022-10-08T23:21:47.932Z,7.13
2022-10-08T23:24:37.823Z,7.38
2022-10-08T23:27:27.744Z,6.65
2022-10-08T23:30:41.584Z,7.10
2022-10-08T23:33:28.812Z,7.40
2022-10-08T23:36:25.339Z,7.00
2022-10-08T23:39:16.531Z,7.03
2022-10-08T23:42:07.081Z,6.97
2022-10-08T23:44:57.372Z,6.43
2022-10-08T23:47:47.215Z,7.07
2022-10-08T23:50:38.439Z,6.68
2022-10-08T23:53:29.205Z,6.13
2022-10-08T23:56:19.424Z,6.95
2022-10-08T23:59:09.468Z,6.55
